Wednesday, April 23, 2014
16:29 UTC
  |  Log In   |  Register Free
Airport Search:

Bishop International Airport
(KFNT)

FAA data valid effective April 3, 2014 until May 29, 2014 (unless otherwise noted).

 
 
 
 
 
 
 
 
 
 
 
 
 
 

Current Aviation Weather for Bishop International Airport (KFNT)

The most recent METAR observation for KFNT was updated at: 1553 UTC
METAR Summary (Translated METAR)
KFNT
231553Z 35010KT 10SM CLR 09/M04 A3012 RMK AO2 SLP206 T00891039
KRNP
(17.4 nm NW from KFNT)
231555Z AUTO 32007KT 10SM CLR 07/M05 A3012 RMK AO2 T00701052
TAF Summary (Translated TAF)
KFNT
231120Z 2312/2412 32011KT P6SM BKN022 OVC035 FM231330 33010KT P6SM FEW030 FM231600 36010KT P6SM SCT250 FM240100 VRB02KT P6SM BKN250
KPTK
(23 nm SE from KFNT)
231355Z 2314/2412 33010KT P6SM BKN020 FM231500 33010KT P6SM SCT025 SCT250 FM240100 VRB02KT P6SM BKN250
  Airport Weather Conditions for KFNT

 Current Weather at FNT
48° F
Fair
North winds at 11.5 mph
FNT NOAA Radar

Pressure: 30.12 in
Humidity: 41%
Wind: North at 11.5 MPH (10 KT)
Dew Point: 25.0°F
Visibility: 10.00 mi


Airport Weather Forecast for KFNT

Translated METAR and TAF for KFNT
Translated METAR for KFNT (1629 UTC 23 April 2014)
found at http://aviationweather.gov/adds/metars/
 
METAR text: KFNT 231553Z 35010KT 10SM CLR 09/M04 A3012 RMK AO2 SLP206 T00891039
Conditions at: KFNT (FLINT , MI, US) observed 1553 UTC 23 April 2014
Temperature: 8.9°C (48°F)
Dewpoint: -3.9°C (25°F) [RH = 40%]
Pressure (altimeter): 30.12 inches Hg (1020.1 mb)
[Sea-level pressure: 1020.6 mb]
Winds: from the N (350 degrees) at 12 MPH (10 knots; 5.2 m/s)
Visibility: 10 or more miles (16+ km)
Ceiling: at least 12,000 feet AGL
Clouds: sky clear below 12,000 feet AGL
Weather: no significant weather observed at this time
Translated TAF for KFNT
Forecast for: KFNT (FLINT , MI, US)
TAF Text: KFNT 231120Z 2312/2412 32011KT P6SM BKN022 OVC035
Forecast period: 1200 to 1330 UTC 23 April 2014
Forecast type: FROM: standard forecast or significant change
Winds: from the NW (320 degrees) at 13 MPH (11 knots; 5.7 m/s)
Visibility: 6 or more miles (10+ km)
Ceiling: 2200 feet AGL
Clouds: broken clouds at 2200 feet AGL
overcast cloud deck at 3500 feet AGL
Weather: no significant weather forecast for this period
TAF Text: FM231330 33010KT P6SM FEW030
Forecast period: 1330 to 1600 UTC 23 April 2014
Forecast type: FROM: standard forecast or significant change
Winds: from the NNW (330 degrees) at 12 MPH (10 knots; 5.2 m/s)
Visibility: 6 or more miles (10+ km)
Clouds: few clouds at 3000 feet AGL
Weather: no significant weather forecast for this period
TAF Text: FM231600 36010KT P6SM SCT250
Forecast period: 1600 UTC 23 April 2014 to 0100 UTC 24 April 2014
Forecast type: FROM: standard forecast or significant change
Winds: from the N (360 degrees) at 12 MPH (10 knots; 5.2 m/s)
Visibility: 6 or more miles (10+ km)
Clouds: scattered clouds at 25000 feet AGL
Weather: no significant weather forecast for this period
TAF Text: FM240100 VRB02KT P6SM BKN250
Forecast period: 0100 to 1200 UTC 24 April 2014
Forecast type: FROM: standard forecast or significant change
Winds: variable direction winds at 2 MPH (2 knots; 1.0 m/s)
Visibility: 6 or more miles (10+ km)
Ceiling: 25000 feet AGL
Clouds: broken clouds at 25000 feet AGL
Weather: no significant weather forecast for this period

Find All Airport Services Find A Hotel Find A Rental Car Find A Golf Course Find A Restaurant $100 Hamburger



FBO's on the Field
FBO Company Facility Photos Services Transportation Aviation Fuel Prices: Prices include tax
Catering Weather Repair Courtesy Rental Type 100LL JetA JetA+ MOGAS 8087
 
Avflight Flint

This FBO has not yet been rated
FS:Avfuel
Last Updated: Apr-22
Login to update fuel prices
SS:
Contact Avflight FlintMore FBO Information
 
Add another FBO Facility Photos Catering Weather Repair Courtesy Rental Type 100LL JetA JetA+ MOGAS 8087
Services Transportation Aviation Fuel Prices: Prices include tax


GlobalAir.com Airport Resource Center model-print
model-print
model-print
model-print